Time;durP1;ratioP1;P1;durP2;ratioP2;P2;SDS_P1;SDS_P2;PMS_P1;PMS_P2;Temp;Humidity;BMP_temperature;BMP_pressure;BME280_temperature;BME280_humidity;BME280_pressure;Samples;Min_cycle;Max_cycle;Signal;HPM_P1;HPM_P2
2021/10/31 00:00:18;;;;;;;;;;;23.70;41.50;;;;;;699243;28;1268;-80
2021/10/31 00:00:38;;;;;;;;;;;22.70;40.30;;;;;;697818;28;1332;-82
2021/10/31 00:00:59;;;;;;;;;;;22.70;40.10;;;;;;697273;28;1242;-82
2021/10/31 00:01:19;;;;;;;;;;;22.70;40.10;;;;;;699471;28;1060;-82
2021/10/31 00:01:40;;;;;;;;;;;22.70;40.10;;;;;;699573;28;905;-82
2021/10/31 00:02:01;;;;;;;;;;;22.70;40.10;;;;;;699494;28;889;-83
2021/10/31 00:02:21;;;;;;;;;;;22.70;40.10;;;;;;698971;28;1284;-82
2021/10/31 00:02:42;;;;;;;;;;;22.70;40.10;;;;;;696789;28;1285;-83
2021/10/31 00:03:02;;;;;;;;;;;22.70;40.20;;;;;;696801;28;893;-84
2021/10/31 00:03:23;;;;;;;;;;;22.70;40.10;;;;;;696755;28;564;-83
2021/10/31 00:03:43;;;;;;;;;;;22.70;40.20;;;;;;696852;28;840;-85
2021/10/31 00:04:04;;;;;;;;;;;22.70;40.10;;;;;;696753;28;512;-84
2021/10/31 00:04:25;;;;;;;;;;;22.70;40.10;;;;;;696777;28;852;-85
2021/10/31 00:04:46;;;;;;;;;;;22.70;40.10;;;;;;696978;28;1295;-82
2021/10/31 00:05:07;;;;;;;;;;;22.70;40.10;;;;;;696980;28;814;-82
2021/10/31 00:05:28;;;;;;;;;;;22.70;40.20;;;;;;696580;28;1346;-82
2021/10/31 00:05:51;;;;;;;;;;;22.70;40.10;;;;;;696785;28;825;-83
2021/10/31 00:06:12;;;;;;;;;;;22.70;40.20;;;;;;696806;28;840;-84
2021/10/31 00:06:32;;;;;;;;;;;22.70;40.10;;;;;;696709;28;880;-84
2021/10/31 00:06:53;;;;;;;;;;;22.70;40.10;;;;;;696816;28;861;-84
2021/10/31 00:07:13;;;;;;;;;;;22.70;40.10;;;;;;696909;28;746;-84
2021/10/31 00:07:34;;;;;;;;;;;22.70;40.60;;;;;;699306;28;1143;-84
2021/10/31 00:07:55;;;;;;;;;;;22.70;40.20;;;;;;699673;28;868;-86
2021/10/31 00:08:15;;;;;;;;;;;22.70;40.20;;;;;;699640;28;869;-84
2021/10/31 00:08:36;;;;;;;;;;;22.70;40.30;;;;;;699442;28;884;-86
2021/10/31 00:08:56;;;;;;;;;;;22.70;40.10;;;;;;699550;28;923;-86
2021/10/31 00:09:17;;;;;;;;;;;22.70;40.20;;;;;;699369;28;833;-89
2021/10/31 00:09:38;;;;;;;;;;;22.70;40.20;;;;;;696942;28;810;-88
2021/10/31 00:09:59;;;;;;;;;;;22.70;40.90;;;;;;702156;28;1136;-85
2021/10/31 00:10:20;;;;;;;;;;;22.70;40.60;;;;;;702324;28;1969;-85
2021/10/31 00:10:40;;;;;;;;;;;22.70;40.30;;;;;;702370;28;825;-87
2021/10/31 00:11:02;;;;;;;;;;;23.50;41.10;;;;;;702289;28;809;-87
2021/10/31 00:11:22;;;;;;;;;;;22.70;40.50;;;;;;702294;28;899;-87
2021/10/31 00:11:43;;;;;;;;;;;22.70;40.80;;;;;;701457;28;781;-88
2021/10/31 00:12:04;;;;;;;;;;;22.70;40.30;;;;;;696924;28;860;-87
2021/10/31 00:12:25;;;;;;;;;;;22.70;40.20;;;;;;698842;28;1334;-84
2021/10/31 00:12:46;;;;;;;;;;;22.70;40.60;;;;;;699544;28;809;-87
2021/10/31 00:13:06;;;;;;;;;;;22.70;40.20;;;;;;699486;28;884;-88
2021/10/31 00:13:27;;;;;;;;;;;22.70;40.20;;;;;;699427;28;798;-87
2021/10/31 00:13:47;;;;;;;;;;;22.70;40.60;;;;;;696357;28;1207;-89
2021/10/31 00:14:08;;;;;;;;;;;22.70;40.50;;;;;;696230;28;1352;-84
2021/10/31 00:14:29;;;;;;;;;;;22.70;40.20;;;;;;696730;28;941;-85
2021/10/31 00:14:49;;;;;;;;;;;22.70;40.40;;;;;;696925;28;811;-87
2021/10/31 00:15:11;;;;;;;;;;;22.70;40.70;;;;;;696700;28;801;-86
2021/10/31 00:15:31;;;;;;;;;;;22.70;40.20;;;;;;696608;28;1222;-86
2021/10/31 00:15:52;;;;;;;;;;;22.70;40.40;;;;;;697813;28;1204;-81
2021/10/31 00:16:12;;;;;;;;;;;22.70;40.40;;;;;;697489;28;1241;-84
2021/10/31 00:16:33;;;;;;;;;;;22.70;40.30;;;;;;698885;28;1194;-84
2021/10/31 00:16:58;;;;;;;;;;;22.70;40.90;;;;;;696774;28;968;-85
2021/10/31 00:17:20;;;;;;;;;;;22.70;40.30;;;;;;699030;28;1334;-86
2021/10/31 00:17:41;;;;;;;;;;;22.70;40.20;;;;;;698083;28;1276;-81
2021/10/31 00:18:02;;;;;;;;;;;22.70;42.50;;;;;;696643;28;896;-82
2021/10/31 00:18:22;;;;;;;;;;;22.70;40.30;;;;;;699096;28;1361;-84
2021/10/31 00:18:43;;;;;;;;;;;22.70;40.50;;;;;;699304;28;1277;-82
2021/10/31 00:19:04;;;;;;;;;;;22.70;40.70;;;;;;696481;28;1418;-82
2021/10/31 00:19:25;;;;;;;;;;;22.70;40.90;;;;;;693758;28;1171;-83
2021/10/31 00:19:46;;;;;;;;;;;22.70;40.10;;;;;;695294;28;1442;-83
2021/10/31 00:20:08;;;;;;;;;;;23.10;40.70;;;;;;696414;28;1183;-84
2021/10/31 00:20:28;;;;;;;;;;;22.70;41.20;;;;;;696472;28;1237;-84
2021/10/31 00:20:52;;;;;;;;;;;22.70;40.30;;;;;;697363;28;801;-84
2021/10/31 00:21:12;;;;;;;;;;;22.70;40.30;;;;;;696721;28;1202;-86
2021/10/31 00:21:33;;;;;;;;;;;22.60;41.10;;;;;;696891;28;1281;-85
2021/10/31 00:21:55;;;;;;;;;;;22.00;41.70;;;;;;697100;28;1186;-86
2021/10/31 00:22:21;;;;;;;;;;;21.40;39.60;;;;;;696579;28;1258;-84
2021/10/31 00:22:44;;;;;;;;;;;22.70;40.10;;;;;;696734;28;1332;-87
2021/10/31 00:23:05;;;;;;;;;;;22.70;40.10;;;;;;695125;28;853;-83
2021/10/31 00:23:26;;;;;;;;;;;22.70;40.10;;;;;;695766;28;1182;-84
2021/10/31 00:23:47;;;;;;;;;;;22.60;40.10;;;;;;696700;28;1222;-85
2021/10/31 00:24:07;;;;;;;;;;;23.80;41.10;;;;;;696873;28;817;-84
2021/10/31 00:24:28;;;;;;;;;;;22.70;40.30;;;;;;696677;28;1344;-88
2021/10/31 00:24:48;;;;;;;;;;;22.70;40.50;;;;;;698790;28;1246;-88
2021/10/31 00:25:09;;;;;;;;;;;22.70;40.40;;;;;;699304;28;814;-86
2021/10/31 00:25:29;;;;;;;;;;;22.70;40.30;;;;;;699132;28;1202;-86
2021/10/31 00:25:51;;;;;;;;;;;22.70;40.20;;;;;;699222;28;1217;-87
2021/10/31 00:26:12;;;;;;;;;;;22.60;40.30;;;;;;699377;28;955;-86
2021/10/31 00:26:33;;;;;;;;;;;22.60;40.00;;;;;;698656;28;1186;-83
2021/10/31 00:26:53;;;;;;;;;;;22.60;40.10;;;;;;696667;28;1225;-86
2021/10/31 00:27:14;;;;;;;;;;;22.70;40.60;;;;;;696836;28;798;-88
2021/10/31 00:27:34;;;;;;;;;;;22.70;40.70;;;;;;696686;28;1258;-86
2021/10/31 00:27:55;;;;;;;;;;;22.70;40.70;;;;;;696625;28;1226;-84
2021/10/31 00:28:16;;;;;;;;;;;22.70;40.10;;;;;;696911;28;893;-84
2021/10/31 00:28:36;;;;;;;;;;;22.60;40.10;;;;;;696623;28;1218;-84
2021/10/31 00:28:57;;;;;;;;;;;22.60;40.30;;;;;;696845;28;786;-83
2021/10/31 00:29:17;;;;;;;;;;;22.60;40.10;;;;;;696953;28;833;-82
2021/10/31 00:29:38;;;;;;;;;;;22.60;40.50;;;;;;696891;28;829;-83
2021/10/31 00:29:58;;;;;;;;;;;22.60;40.30;;;;;;696464;28;1323;-84
2021/10/31 00:30:19;;;;;;;;;;;22.60;40.30;;;;;;696673;28;1906;-85
2021/10/31 00:30:40;;;;;;;;;;;22.70;40.70;;;;;;696585;28;891;-86
2021/10/31 00:31:01;;;;;;;;;;;22.60;40.30;;;;;;696681;28;888;-82
2021/10/31 00:31:22;;;;;;;;;;;22.60;40.60;;;;;;696466;28;1305;-82
2021/10/31 00:31:43;;;;;;;;;;;22.60;41.10;;;;;;696768;28;897;-85
2021/10/31 00:32:04;;;;;;;;;;;22.60;40.00;;;;;;696665;28;860;-84
2021/10/31 00:32:24;;;;;;;;;;;22.60;40.10;;;;;;696752;28;782;-82
2021/10/31 00:32:45;;;;;;;;;;;22.60;40.50;;;;;;699223;28;908;-86
2021/10/31 00:33:07;;;;;;;;;;;22.60;40.10;;;;;;699787;28;782;-84
2021/10/31 00:33:27;;;;;;;;;;;22.70;40.10;;;;;;702264;28;861;-81
2021/10/31 00:33:48;;;;;;;;;;;22.70;40.10;;;;;;703042;28;1230;-85
2021/10/31 00:34:08;;;;;;;;;;;22.60;40.00;;;;;;704972;28;849;-88
2021/10/31 00:34:30;;;;;;;;;;;22.60;40.00;;;;;;701299;28;966;-88
2021/10/31 00:34:51;;;;;;;;;;;22.60;40.10;;;;;;699529;28;825;-84
2021/10/31 00:35:11;;;;;;;;;;;22.70;40.30;;;;;;699458;28;837;-83
2021/10/31 00:35:32;;;;;;;;;;;22.60;41.20;;;;;;696395;28;1271;-84
2021/10/31 00:35:52;;;;;;;;;;;22.60;40.20;;;;;;693224;28;1434;-85
2021/10/31 00:36:13;;;;;;;;;;;22.70;40.10;;;;;;694639;28;1311;-85
2021/10/31 00:36:33;;;;;;;;;;;22.60;40.00;;;;;;696620;28;916;-85
2021/10/31 00:36:54;;;;;;;;;;;22.60;41.20;;;;;;696718;28;861;-84
2021/10/31 00:37:15;;;;;;;;;;;22.60;40.10;;;;;;696857;28;885;-85
2021/10/31 00:37:35;;;;;;;;;;;22.60;40.00;;;;;;699526;28;805;-85
2021/10/31 00:37:56;;;;;;;;;;;22.60;40.10;;;;;;699452;28;813;-84
2021/10/31 00:38:16;;;;;;;;;;;22.70;40.20;;;;;;699124;28;1207;-86
2021/10/31 00:38:37;;;;;;;;;;;22.60;40.10;;;;;;699399;28;961;-84
2021/10/31 00:38:57;;;;;;;;;;;22.60;40.20;;;;;;699485;28;797;-86
2021/10/31 00:39:18;;;;;;;;;;;22.60;40.00;;;;;;699366;28;623;-85
2021/10/31 00:39:38;;;;;;;;;;;22.60;40.10;;;;;;699485;28;825;-82
2021/10/31 00:39:59;;;;;;;;;;;22.60;40.10;;;;;;696766;28;1233;-85
2021/10/31 00:40:21;;;;;;;;;;;22.60;40.00;;;;;;699491;28;853;-84
2021/10/31 00:40:44;;;;;;;;;;;22.60;40.00;;;;;;699512;28;793;-84
2021/10/31 00:41:04;;;;;;;;;;;22.60;40.00;;;;;;699320;28;842;-85
2021/10/31 00:41:25;;;;;;;;;;;22.60;40.10;;;;;;699424;28;888;-83
2021/10/31 00:41:46;;;;;;;;;;;22.60;40.00;;;;;;696667;28;1218;-85
2021/10/31 00:42:06;;;;;;;;;;;22.60;40.00;;;;;;699450;28;817;-85
2021/10/31 00:42:27;;;;;;;;;;;22.60;40.00;;;;;;696449;28;1387;-86
2021/10/31 00:42:47;;;;;;;;;;;22.60;40.10;;;;;;696807;28;968;-89
2021/10/31 00:43:08;;;;;;;;;;;22.60;40.00;;;;;;696690;28;797;-86
2021/10/31 00:43:28;;;;;;;;;;;22.60;40.00;;;;;;696895;28;873;-83
2021/10/31 00:43:49;;;;;;;;;;;22.60;40.00;;;;;;699499;28;844;-86
2021/10/31 00:44:10;;;;;;;;;;;22.60;40.10;;;;;;696823;28;1398;-85
2021/10/31 00:44:30;;;;;;;;;;;22.60;40.00;;;;;;696490;28;1322;-83
2021/10/31 00:44:51;;;;;;;;;;;22.60;40.00;;;;;;696597;28;948;-85
2021/10/31 00:45:11;;;;;;;;;;;22.60;40.00;;;;;;696762;28;833;-85
2021/10/31 00:45:32;;;;;;;;;;;22.60;40.00;;;;;;696643;28;880;-84
2021/10/31 00:45:52;;;;;;;;;;;22.60;40.00;;;;;;696908;28;549;-84
2021/10/31 00:46:13;;;;;;;;;;;22.60;40.00;;;;;;699452;28;840;-86
2021/10/31 00:46:34;;;;;;;;;;;22.60;40.90;;;;;;699317;28;1437;-83
2021/10/31 00:46:54;;;;;;;;;;;22.60;40.10;;;;;;699385;28;485;-84
2021/10/31 00:47:15;;;;;;;;;;;22.60;40.40;;;;;;699588;28;785;-83
2021/10/31 00:47:35;;;;;;;;;;;22.60;40.10;;;;;;699369;28;797;-84
2021/10/31 00:47:56;;;;;;;;;;;22.60;40.10;;;;;;699403;28;790;-85
2021/10/31 00:48:17;;;;;;;;;;;22.60;40.10;;;;;;699545;28;864;-85
2021/10/31 00:48:38;;;;;;;;;;;22.60;40.00;;;;;;699574;28;833;-85
2021/10/31 00:48:59;;;;;;;;;;;22.60;40.00;;;;;;704483;28;1261;-87
2021/10/31 00:49:20;;;;;;;;;;;22.60;40.70;;;;;;705101;28;837;-87
2021/10/31 00:49:40;;;;;;;;;;;22.60;40.20;;;;;;702179;28;1361;-88
2021/10/31 00:50:04;;;;;;;;;;;22.60;40.00;;;;;;702116;28;813;-85
2021/10/31 00:50:24;;;;;;;;;;;22.60;40.00;;;;;;701961;28;1972;-87
2021/10/31 00:50:48;;;;;;;;;;;22.60;40.00;;;;;;698782;28;1238;-85
2021/10/31 00:51:09;;;;;;;;;;;22.60;40.10;;;;;;696535;28;1356;-85
2021/10/31 00:51:29;;;;;;;;;;;22.60;40.00;;;;;;699888;28;1508;-86
2021/10/31 00:51:51;;;;;;;;;;;22.60;40.10;;;;;;702213;28;889;-83
2021/10/31 00:52:11;;;;;;;;;;;22.60;40.10;;;;;;702342;28;805;-86
2021/10/31 00:52:32;;;;;;;;;;;22.60;40.00;;;;;;701419;28;1092;-85
2021/10/31 00:52:53;;;;;;;;;;;22.60;40.10;;;;;;702183;28;813;-85
2021/10/31 00:53:13;;;;;;;;;;;22.60;40.00;;;;;;701749;28;848;-86
2021/10/31 00:53:36;;;;;;;;;;;22.60;40.10;;;;;;699355;28;896;-84
2021/10/31 00:53:58;;;;;;;;;;;22.50;40.00;;;;;;701568;28;853;-85
2021/10/31 00:54:19;;;;;;;;;;;22.60;40.00;;;;;;702263;28;789;-87
2021/10/31 00:54:39;;;;;;;;;;;22.60;40.10;;;;;;698885;28;1338;-86
2021/10/31 00:55:00;;;;;;;;;;;22.60;40.00;;;;;;699435;28;860;-83
2021/10/31 00:55:21;;;;;;;;;;;22.60;40.00;;;;;;700149;28;912;-81
2021/10/31 00:55:41;;;;;;;;;;;22.60;40.00;;;;;;701827;28;939;-83
2021/10/31 00:56:02;;;;;;;;;;;22.60;40.30;;;;;;699249;28;908;-86
2021/10/31 00:56:23;;;;;;;;;;;22.60;40.00;;;;;;699352;28;850;-86
2021/10/31 00:56:44;;;;;;;;;;;22.60;40.10;;;;;;699708;28;915;-86
2021/10/31 00:57:05;;;;;;;;;;;22.60;40.10;;;;;;699578;28;896;-85
2021/10/31 00:57:26;;;;;;;;;;;21.80;39.60;;;;;;704508;28;926;-83
2021/10/31 00:57:46;;;;;;;;;;;22.60;40.00;;;;;;704969;28;870;-83
2021/10/31 00:58:08;;;;;;;;;;;22.60;40.10;;;;;;704820;28;1405;-85
2021/10/31 00:58:28;;;;;;;;;;;22.60;40.00;;;;;;704935;28;987;-87
2021/10/31 00:58:49;;;;;;;;;;;22.60;40.00;;;;;;701822;28;1319;-86
2021/10/31 00:59:09;;;;;;;;;;;22.60;40.10;;;;;;698801;28;1211;-85
2021/10/31 00:59:30;;;;;;;;;;;22.60;40.00;;;;;;696486;28;952;-82
2021/10/31 00:59:51;;;;;;;;;;;22.60;40.20;;;;;;693805;28;1374;-83
2021/10/31 01:00:11;;;;;;;;;;;22.60;40.00;;;;;;694001;28;1052;-82
2021/10/31 01:00:32;;;;;;;;;;;22.60;40.10;;;;;;694320;28;1448;-86
2021/10/31 01:00:52;;;;;;;;;;;22.60;40.00;;;;;;696612;28;896;-86
2021/10/31 01:01:13;;;;;;;;;;;22.60;40.00;;;;;;693679;28;1458;-86
2021/10/31 01:01:34;;;;;;;;;;;22.60;40.10;;;;;;693580;28;1449;-83
2021/10/31 01:01:55;;;;;;;;;;;22.60;40.00;;;;;;699233;28;1146;-83
2021/10/31 01:02:16;;;;;;;;;;;22.60;40.10;;;;;;698963;28;1319;-84
2021/10/31 01:02:38;;;;;;;;;;;22.60;40.00;;;;;;702126;28;828;-84
2021/10/31 01:02:58;;;;;;;;;;;22.60;40.10;;;;;;702807;28;888;-85
2021/10/31 01:03:21;;;;;;;;;;;22.60;40.00;;;;;;705103;28;875;-85
2021/10/31 01:03:42;;;;;;;;;;;22.60;40.10;;;;;;704054;28;841;-80
2021/10/31 01:04:04;;;;;;;;;;;22.60;40.10;;;;;;701350;28;885;-85
2021/10/31 01:04:26;;;;;;;;;;;22.60;40.10;;;;;;699448;28;806;-83
2021/10/31 01:04:49;;;;;;;;;;;22.60;40.00;;;;;;698179;28;1555;-84
2021/10/31 01:05:11;;;;;;;;;;;22.60;40.00;;;;;;696374;28;1334;-86
2021/10/31 01:05:34;;;;;;;;;;;22.50;39.90;;;;;;696599;28;885;-86
2021/10/31 01:06:02;;;;;;;;;;;22.60;40.10;;;;;;696581;28;1277;-84
2021/10/31 01:06:35;;;;;;;;;;;22.60;40.10;;;;;;693798;28;806;-83
2021/10/31 01:06:55;;;;;;;;;;;22.50;39.90;;;;;;693913;28;977;-82
2021/10/31 01:07:34;;;;;;;;;;;22.60;40.00;;;;;;694123;28;845;-81
2021/10/31 01:08:00;;;;;;;;;;;22.50;41.10;;;;;;694050;28;838;-81
2021/10/31 01:08:29;;;;;;;;;;;22.60;40.10;;;;;;694096;28;841;-82
2021/10/31 01:09:03;;;;;;;;;;;22.60;41.10;;;;;;695769;28;1701;-82
2021/10/31 01:09:42;;;;;;;;;;;22.50;39.90;;;;;;693887;28;864;-78
2021/10/31 01:10:15;;;;;;;;;;;22.50;40.00;;;;;;693803;28;822;-78
2021/10/31 01:10:51;;;;;;;;;;;22.50;40.00;;;;;;693908;28;1977;-75
2021/10/31 01:11:12;;;;;;;;;;;22.50;40.00;;;;;;694107;28;794;-77
2021/10/31 01:11:41;;;;;;;;;;;22.50;39.90;;;;;;693997;28;861;-75
2021/10/31 01:12:02;;;;;;;;;;;22.50;40.00;;;;;;693970;28;928;-81
2021/10/31 01:12:26;;;;;;;;;;;22.50;39.90;;;;;;694052;28;826;-81
2021/10/31 01:13:05;;;;;;;;;;;22.50;39.90;;;;;;694052;28;869;-82
2021/10/31 01:13:32;;;;;;;;;;;22.50;39.90;;;;;;693756;28;1664;-82
2021/10/31 01:13:58;;;;;;;;;;;22.50;39.90;;;;;;695289;28;1834;-81
2021/10/31 01:14:23;;;;;;;;;;;22.50;39.90;;;;;;696312;28;1546;-81
2021/10/31 01:14:59;;;;;;;;;;;22.50;40.00;;;;;;696606;28;1519;-80
2021/10/31 01:15:26;;;;;;;;;;;22.50;40.00;;;;;;696831;28;817;-81
2021/10/31 01:16:00;;;;;;;;;;;22.50;40.00;;;;;;698183;28;1330;-81
2021/10/31 01:16:28;;;;;;;;;;;22.50;40.00;;;;;;696617;28;885;-81
2021/10/31 01:17:01;;;;;;;;;;;22.50;40.00;;;;;;693729;28;845;-81
2021/10/31 01:17:34;;;;;;;;;;;22.50;39.90;;;;;;693756;28;917;-82
2021/10/31 01:17:54;;;;;;;;;;;22.50;40.00;;;;;;696482;28;1074;-80
2021/10/31 01:18:17;;;;;;;;;;;22.50;39.90;;;;;;696623;28;794;-80
2021/10/31 01:18:51;;;;;;;;;;;22.50;39.90;;;;;;696636;28;849;-80
2021/10/31 01:19:18;;;;;;;;;;;22.50;40.00;;;;;;696800;28;964;-82
2021/10/31 01:19:38;;;;;;;;;;;22.50;39.90;;;;;;696730;28;956;-82
2021/10/31 01:20:06;;;;;;;;;;;22.50;39.90;;;;;;696655;28;1457;-82
2021/10/31 01:20:44;;;;;;;;;;;22.50;40.00;;;;;;696635;28;967;-83
2021/10/31 01:21:17;;;;;;;;;;;22.50;39.90;;;;;;696601;28;989;-82
2021/10/31 01:21:56;;;;;;;;;;;22.50;40.00;;;;;;696801;28;817;-81
2021/10/31 01:22:31;;;;;;;;;;;22.50;40.00;;;;;;696750;28;965;-82
2021/10/31 01:23:07;;;;;;;;;;;22.50;40.00;;;;;;696852;28;829;-81
2021/10/31 01:23:36;;;;;;;;;;;22.50;40.00;;;;;;699789;28;1302;-81
2021/10/31 01:24:10;;;;;;;;;;;22.50;39.90;;;;;;702081;28;883;-82
2021/10/31 01:24:48;;;;;;;;;;;22.40;40.00;;;;;;704774;28;1620;-83
2021/10/31 01:25:15;;;;;;;;;;;22.40;40.00;;;;;;701665;28;1227;-82
2021/10/31 01:25:54;;;;;;;;;;;22.50;39.90;;;;;;698781;28;1522;-83
2021/10/31 01:26:21;;;;;;;;;;;22.50;39.90;;;;;;699098;28;880;-81
2021/10/31 01:26:48;;;;;;;;;;;22.40;39.80;;;;;;696713;28;847;-82
2021/10/31 01:27:17;;;;;;;;;;;22.40;39.80;;;;;;698925;28;848;-82
2021/10/31 01:27:57;;;;;;;;;;;22.40;39.80;;;;;;699392;28;1515;-82
2021/10/31 01:28:36;;;;;;;;;;;22.50;39.90;;;;;;699273;28;1304;-80
2021/10/31 01:29:15;;;;;;;;;;;22.40;39.80;;;;;;693909;28;963;-83
2021/10/31 01:29:38;;;;;;;;;;;22.40;39.80;;;;;;693905;28;893;-81
2021/10/31 01:30:08;;;;;;;;;;;22.40;39.80;;;;;;693962;28;912;-82
2021/10/31 01:30:58;;;;;;;;;;;22.40;39.80;;;;;;693859;28;1902;-83
2021/10/31 01:31:41;;;;;;;;;;;22.40;39.80;;;;;;699419;28;1222;-82
2021/10/31 01:32:05;;;;;;;;;;;22.40;39.80;;;;;;698750;28;1268;-81
2021/10/31 01:32:29;;;;;;;;;;;22.40;39.80;;;;;;696387;28;1216;-81
2021/10/31 01:32:55;;;;;;;;;;;22.40;39.70;;;;;;696594;28;791;-81
2021/10/31 01:33:27;;;;;;;;;;;22.40;39.80;;;;;;694458;28;943;-83
2021/10/31 01:34:02;;;;;;;;;;;22.40;39.60;;;;;;694288;28;1303;-80
2021/10/31 01:34:25;;;;;;;;;;;22.40;39.60;;;;;;698498;28;1221;-80
2021/10/31 01:35:04;;;;;;;;;;;22.40;39.70;;;;;;699477;28;797;-80
2021/10/31 01:35:42;;;;;;;;;;;22.40;39.60;;;;;;699294;28;802;-81
2021/10/31 01:36:23;;;;;;;;;;;22.40;39.60;;;;;;693836;28;902;-81
2021/10/31 01:36:47;;;;;;;;;;;22.40;39.60;;;;;;693668;28;1925;-81
2021/10/31 01:37:29;;;;;;;;;;;22.40;39.60;;;;;;693967;28;880;-81
2021/10/31 01:38:25;;;;;;;;;;;22.40;39.70;;;;;;694695;28;1239;-81
2021/10/31 01:38:55;;;;;;;;;;;22.40;39.80;;;;;;688349;28;873;-81
2021/10/31 01:39:21;;;;;;;;;;;22.40;39.60;;;;;;688329;28;860;-82
2021/10/31 01:39:48;;;;;;;;;;;22.50;39.60;;;;;;688298;28;956;-82
2021/10/31 01:40:09;;;;;;;;;;;22.40;39.80;;;;;;687870;28;791;-82
2021/10/31 01:40:29;;;;;;;;;;;22.40;40.10;;;;;;687419;28;1216;-82
2021/10/31 01:40:56;;;;;;;;;;;22.40;39.80;;;;;;687476;28;2385;-82
2021/10/31 01:41:25;;;;;;;;;;;22.40;39.60;;;;;;688365;28;1059;-82
2021/10/31 01:42:04;;;;;;;;;;;22.40;39.80;;;;;;688302;28;841;-82
2021/10/31 01:42:27;;;;;;;;;;;22.40;39.80;;;;;;688182;28;825;-82
2021/10/31 01:43:02;;;;;;;;;;;22.40;39.80;;;;;;688392;28;865;-82
2021/10/31 01:43:45;;;;;;;;;;;22.50;39.70;;;;;;688172;28;807;-82
2021/10/31 01:44:28;;;;;;;;;;;22.40;39.80;;;;;;688345;28;814;-82
2021/10/31 01:44:56;;;;;;;;;;;22.40;39.80;;;;;;677736;29;985;-84
2021/10/31 01:45:21;;;;;;;;;;;22.50;39.80;;;;;;677761;29;795;-81
2021/10/31 01:46:00;;;;;;;;;;;22.40;39.70;;;;;;677710;29;1101;-82
2021/10/31 01:46:40;;;;;;;;;;;22.50;39.80;;;;;;677569;29;787;-82
2021/10/31 01:47:15;;;;;;;;;;;22.50;39.70;;;;;;677685;29;867;-82
2021/10/31 01:47:44;;;;;;;;;;;22.50;39.80;;;;;;677584;29;926;-83
2021/10/31 01:48:22;;;;;;;;;;;22.50;39.80;;;;;;679768;29;1097;-82
2021/10/31 01:48:57;;;;;;;;;;;22.40;39.70;;;;;;680317;29;905;-80
2021/10/31 01:49:28;;;;;;;;;;;22.50;39.80;;;;;;680314;29;867;-82
2021/10/31 01:49:48;;;;;;;;;;;22.50;39.70;;;;;;679984;29;977;-82
2021/10/31 01:50:11;;;;;;;;;;;22.50;39.70;;;;;;677575;29;1203;-82
2021/10/31 01:50:41;;;;;;;;;;;22.50;39.70;;;;;;677270;29;1960;-81
2021/10/31 01:51:06;;;;;;;;;;;22.50;39.60;;;;;;677767;29;881;-81
2021/10/31 01:51:38;;;;;;;;;;;22.50;39.70;;;;;;677561;29;859;-82
2021/10/31 01:52:00;;;;;;;;;;;22.50;39.70;;;;;;677580;29;934;-81
2021/10/31 01:52:23;;;;;;;;;;;22.50;39.70;;;;;;677596;29;910;-81
2021/10/31 01:52:52;;;;;;;;;;;22.50;39.60;;;;;;677703;29;914;-80
2021/10/31 01:53:23;;;;;;;;;;;22.50;39.60;;;;;;677721;29;948;-79
2021/10/31 01:54:02;;;;;;;;;;;22.50;39.50;;;;;;677740;29;889;-81
2021/10/31 01:54:43;;;;;;;;;;;22.50;39.60;;;;;;677559;29;971;-81
2021/10/31 01:55:17;;;;;;;;;;;22.50;39.60;;;;;;677197;29;1091;-82
2021/10/31 01:55:40;;;;;;;;;;;22.50;39.60;;;;;;677705;29;902;-81
2021/10/31 01:56:06;;;;;;;;;;;22.50;39.70;;;;;;677449;29;1550;-78
2021/10/31 01:56:27;;;;;;;;;;;22.50;39.70;;;;;;677585;29;855;-80
2021/10/31 01:56:50;;;;;;;;;;;22.50;39.60;;;;;;677735;29;799;-82
2021/10/31 01:57:15;;;;;;;;;;;22.50;39.60;;;;;;677660;29;960;-80
2021/10/31 01:57:39;;;;;;;;;;;22.50;39.40;;;;;;674946;29;1424;-82
2021/10/31 01:57:59;;;;;;;;;;;22.50;39.60;;;;;;674924;29;899;-80
2021/10/31 01:58:22;;;;;;;;;;;22.50;39.50;;;;;;675080;29;837;-84
2021/10/31 01:58:57;;;;;;;;;;;22.50;39.60;;;;;;675092;29;792;-81
2021/10/31 01:59:24;;;;;;;;;;;22.50;39.60;;;;;;675127;29;942;-82
2021/10/31 01:59:46;;;;;;;;;;;22.50;39.50;;;;;;677712;29;819;-82
2021/10/31 02:00:12;;;;;;;;;;;22.50;39.50;;;;;;677667;29;795;-82
2021/10/31 02:00:34;;;;;;;;;;;22.50;39.60;;;;;;677555;29;874;-82
2021/10/31 02:00:55;;;;;;;;;;;22.50;39.60;;;;;;677673;29;1106;-84
2021/10/31 02:01:16;;;;;;;;;;;22.50;39.50;;;;;;677552;29;969;-82
2021/10/31 02:01:38;;;;;;;;;;;22.50;39.50;;;;;;677676;29;980;-83
2021/10/31 02:02:00;;;;;;;;;;;22.50;39.60;;;;;;677593;29;815;-82
2021/10/31 02:02:22;;;;;;;;;;;22.50;39.60;;;;;;677046;29;1443;-81
2021/10/31 02:02:45;;;;;;;;;;;22.50;39.50;;;;;;677698;29;869;-79
2021/10/31 02:03:07;;;;;;;;;;;22.50;39.60;;;;;;677610;29;858;-81
2021/10/31 02:03:30;;;;;;;;;;;22.50;39.30;;;;;;677573;29;1619;-82
2021/10/31 02:03:51;;;;;;;;;;;22.50;39.40;;;;;;677635;29;922;-80
2021/10/31 02:04:13;;;;;;;;;;;22.50;39.30;;;;;;677816;29;866;-80
2021/10/31 02:04:35;;;;;;;;;;;22.50;39.30;;;;;;677536;29;867;-81
2021/10/31 02:04:56;;;;;;;;;;;22.40;39.40;;;;;;677558;29;944;-81
2021/10/31 02:05:19;;;;;;;;;;;22.50;39.30;;;;;;677634;29;887;-79
2021/10/31 02:05:40;;;;;;;;;;;22.50;39.40;;;;;;677589;29;785;-80
2021/10/31 02:06:01;;;;;;;;;;;22.50;39.40;;;;;;677512;29;902;-81
2021/10/31 02:06:22;;;;;;;;;;;22.50;39.40;;;;;;677651;29;792;-79
2021/10/31 02:06:44;;;;;;;;;;;22.50;39.30;;;;;;677667;29;828;-80
2021/10/31 02:07:05;;;;;;;;;;;22.50;39.40;;;;;;677552;29;987;-81
2021/10/31 02:07:26;;;;;;;;;;;22.50;39.40;;;;;;677554;29;946;-82
2021/10/31 02:07:52;;;;;;;;;;;22.50;39.40;;;;;;677703;29;862;-82
2021/10/31 02:08:15;;;;;;;;;;;22.50;39.40;;;;;;675201;29;1066;-80
2021/10/31 02:08:37;;;;;;;;;;;22.50;39.40;;;;;;674991;29;1323;-81
2021/10/31 02:08:58;;;;;;;;;;;22.50;39.30;;;;;;674990;29;823;-80
2021/10/31 02:09:21;;;;;;;;;;;22.50;39.40;;;;;;675119;29;842;-82
2021/10/31 02:09:43;;;;;;;;;;;22.50;39.00;;;;;;675226;29;807;-82
2021/10/31 02:10:05;;;;;;;;;;;22.50;39.30;;;;;;676342;29;1027;-82
2021/10/31 02:10:26;;;;;;;;;;;22.50;39.40;;;;;;677582;29;1911;-81
2021/10/31 02:10:47;;;;;;;;;;;22.50;39.40;;;;;;677750;29;819;-82
2021/10/31 02:11:09;;;;;;;;;;;22.50;39.30;;;;;;677642;29;831;-82
2021/10/31 02:11:32;;;;;;;;;;;22.50;39.30;;;;;;677566;29;787;-79
2021/10/31 02:11:53;;;;;;;;;;;22.50;39.20;;;;;;677630;29;846;-81
2021/10/31 02:12:17;;;;;;;;;;;22.50;39.20;;;;;;677766;29;879;-81
2021/10/31 02:12:39;;;;;;;;;;;23.10;39.70;;;;;;674901;29;897;-81
2021/10/31 02:13:02;;;;;;;;;;;22.50;39.30;;;;;;674977;29;820;-80
2021/10/31 02:13:26;;;;;;;;;;;22.50;39.40;;;;;;675799;29;1269;-82
2021/10/31 02:13:49;;;;;;;;;;;22.50;39.40;;;;;;676632;28;1244;-82
2021/10/31 02:14:09;;;;;;;;;;;22.50;39.40;;;;;;685331;28;1235;-82
2021/10/31 02:14:30;;;;;;;;;;;22.50;39.40;;;;;;678773;29;1297;-82
2021/10/31 02:14:51;;;;;;;;;;;22.50;39.30;;;;;;681472;29;1225;-81
2021/10/31 02:15:13;;;;;;;;;;;22.50;39.20;;;;;;683231;28;1236;-81
2021/10/31 02:15:34;;;;;;;;;;;22.50;39.30;;;;;;680098;29;901;-82
2021/10/31 02:15:55;;;;;;;;;;;22.50;39.30;;;;;;681395;29;1340;-82
2021/10/31 02:16:16;;;;;;;;;;;22.50;40.40;;;;;;683374;28;1264;-81
2021/10/31 02:16:37;;;;;;;;;;;22.50;39.30;;;;;;685392;28;907;-82
2021/10/31 02:16:58;;;;;;;;;;;22.50;39.40;;;;;;685150;28;1168;-82
2021/10/31 02:17:19;;;;;;;;;;;22.50;39.30;;;;;;687864;28;1243;-81
2021/10/31 02:17:40;;;;;;;;;;;22.50;39.20;;;;;;688079;28;909;-81
2021/10/31 02:18:01;;;;;;;;;;;22.50;39.20;;;;;;690407;28;1378;-81
2021/10/31 02:18:23;;;;;;;;;;;22.50;39.30;;;;;;687712;28;1215;-81
2021/10/31 02:18:46;;;;;;;;;;;22.50;39.30;;;;;;688119;28;846;-82
2021/10/31 02:19:09;;;;;;;;;;;22.50;39.30;;;;;;687121;28;833;-82
2021/10/31 02:19:37;;;;;;;;;;;22.50;39.40;;;;;;685475;28;942;-81
2021/10/31 02:19:58;;;;;;;;;;;22.50;39.30;;;;;;683341;28;933;-82
2021/10/31 02:20:20;;;;;;;;;;;22.50;39.40;;;;;;685093;28;907;-81
2021/10/31 02:20:42;;;;;;;;;;;22.50;39.40;;;;;;685585;28;885;-80
2021/10/31 02:21:04;;;;;;;;;;;22.50;38.80;;;;;;685457;28;871;-81
2021/10/31 02:21:26;;;;;;;;;;;22.50;39.10;;;;;;685562;28;889;-82
2021/10/31 02:21:49;;;;;;;;;;;22.50;39.30;;;;;;685496;28;843;-80
2021/10/31 02:22:20;;;;;;;;;;;22.50;38.90;;;;;;685365;28;807;-80
2021/10/31 02:22:42;;;;;;;;;;;22.50;38.90;;;;;;685517;28;791;-81
2021/10/31 02:23:03;;;;;;;;;;;22.50;38.90;;;;;;693847;28;850;-82
2021/10/31 02:23:24;;;;;;;;;;;22.50;39.00;;;;;;693886;28;836;-83
2021/10/31 02:23:45;;;;;;;;;;;22.50;38.80;;;;;;694071;28;817;-81
2021/10/31 02:24:07;;;;;;;;;;;22.50;39.00;;;;;;693840;28;881;-82
2021/10/31 02:24:28;;;;;;;;;;;22.50;38.90;;;;;;693876;28;881;-82
2021/10/31 02:24:48;;;;;;;;;;;22.50;39.00;;;;;;693952;28;822;-81
2021/10/31 02:25:12;;;;;;;;;;;22.40;38.30;;;;;;693913;28;806;-81
2021/10/31 02:25:33;;;;;;;;;;;22.50;38.60;;;;;;693970;28;865;-81